sensor_id;sensor_type;location;lat;lon;timestamp;temperature;humidity
2495;DHT22;1258;48.336;14.322;2024-03-08T00:00:59;-1.50;99.90
2495;DHT22;1258;48.336;14.322;2024-03-08T00:03:26;-1.40;99.90
2495;DHT22;1258;48.336;14.322;2024-03-08T00:05:56;-1.50;99.90
2495;DHT22;1258;48.336;14.322;2024-03-08T00:08:23;-1.50;99.90
2495;DHT22;1258;48.336;14.322;2024-03-08T00:10:50;-1.50;99.90
2495;DHT22;1258;48.336;14.322;2024-03-08T00:13:17;-1.50;99.90
2495;DHT22;1258;48.336;14.322;2024-03-08T00:15:44;-1.60;99.90
2495;DHT22;1258;48.336;14.322;2024-03-08T00:18:11;-1.80;99.90
2495;DHT22;1258;48.336;14.322;2024-03-08T00:20:38;-1.70;99.90
2495;DHT22;1258;48.336;14.322;2024-03-08T00:23:06;-1.60;99.90
2495;DHT22;1258;48.336;14.322;2024-03-08T00:25:33;-1.70;99.90
2495;DHT22;1258;48.336;14.322;2024-03-08T00:28:01;-1.70;99.90
2495;DHT22;1258;48.336;14.322;2024-03-08T00:30:28;-1.90;99.90
2495;DHT22;1258;48.336;14.322;2024-03-08T00:32:56;-1.80;99.90
2495;DHT22;1258;48.336;14.322;2024-03-08T00:35:23;-1.90;99.90
2495;DHT22;1258;48.336;14.322;2024-03-08T00:37:50;-1.90;99.90
2495;DHT22;1258;48.336;14.322;2024-03-08T00:40:18;-2.00;99.90
2495;DHT22;1258;48.336;14.322;2024-03-08T00:42:48;-2.00;99.90
2495;DHT22;1258;48.336;14.322;2024-03-08T00:45:15;-2.10;99.90
2495;DHT22;1258;48.336;14.322;2024-03-08T00:47:42;-2.00;99.90
2495;DHT22;1258;48.336;14.322;2024-03-08T00:50:10;-2.00;99.90
2495;DHT22;1258;48.336;14.322;2024-03-08T00:52:37;-2.00;99.90
2495;DHT22;1258;48.336;14.322;2024-03-08T00:55:05;-2.10;99.90
2495;DHT22;1258;48.336;14.322;2024-03-08T00:57:34;-2.20;99.90
2495;DHT22;1258;48.336;14.322;2024-03-08T01:00:03;-2.20;99.90
2495;DHT22;1258;48.336;14.322;2024-03-08T01:02:31;-2.40;99.90
2495;DHT22;1258;48.336;14.322;2024-03-08T01:04:59;-2.40;99.90
2495;DHT22;1258;48.336;14.322;2024-03-08T01:07:25;-2.40;99.90
2495;DHT22;1258;48.336;14.322;2024-03-08T01:09:52;-2.40;99.90
2495;DHT22;1258;48.336;14.322;2024-03-08T01:12:19;-2.60;99.90
2495;DHT22;1258;48.336;14.322;2024-03-08T01:14:48;-2.50;99.90
2495;DHT22;1258;48.336;14.322;2024-03-08T01:17:15;-2.60;99.90
2495;DHT22;1258;48.336;14.322;2024-03-08T01:19:42;-2.60;99.90
2495;DHT22;1258;48.336;14.322;2024-03-08T01:22:11;-2.50;99.90
2495;DHT22;1258;48.336;14.322;2024-03-08T01:24:37;-2.80;99.90
2495;DHT22;1258;48.336;14.322;2024-03-08T01:27:05;-2.60;99.90
2495;DHT22;1258;48.336;14.322;2024-03-08T01:29:34;-2.60;99.90
2495;DHT22;1258;48.336;14.322;2024-03-08T01:32:03;-2.80;99.90
2495;DHT22;1258;48.336;14.322;2024-03-08T01:34:30;-2.70;99.90
2495;DHT22;1258;48.336;14.322;2024-03-08T01:36:58;-2.60;99.90
2495;DHT22;1258;48.336;14.322;2024-03-08T01:39:26;-2.90;99.90
2495;DHT22;1258;48.336;14.322;2024-03-08T01:41:53;-3.20;99.90
2495;DHT22;1258;48.336;14.322;2024-03-08T01:44:21;-3.30;99.90
2495;DHT22;1258;48.336;14.322;2024-03-08T01:46:49;-3.30;99.90
2495;DHT22;1258;48.336;14.322;2024-03-08T01:49:19;-3.50;99.90
2495;DHT22;1258;48.336;14.322;2024-03-08T01:51:47;-3.40;99.90
2495;DHT22;1258;48.336;14.322;2024-03-08T01:54:16;-3.20;99.90
2495;DHT22;1258;48.336;14.322;2024-03-08T01:56:45;-3.10;99.90
2495;DHT22;1258;48.336;14.322;2024-03-08T01:59:13;-3.00;99.90
2495;DHT22;1258;48.336;14.322;2024-03-08T02:01:40;-3.00;99.90
2495;DHT22;1258;48.336;14.322;2024-03-08T02:04:07;-3.20;99.90
2495;DHT22;1258;48.336;14.322;2024-03-08T02:06:36;-3.00;99.90
2495;DHT22;1258;48.336;14.322;2024-03-08T02:09:03;-3.00;99.90
2495;DHT22;1258;48.336;14.322;2024-03-08T02:11:33;-3.00;99.90
2495;DHT22;1258;48.336;14.322;2024-03-08T02:14:01;-3.10;99.90
2495;DHT22;1258;48.336;14.322;2024-03-08T02:16:29;-3.00;99.90
2495;DHT22;1258;48.336;14.322;2024-03-08T02:18:56;-3.00;99.90
2495;DHT22;1258;48.336;14.322;2024-03-08T02:21:25;-3.00;99.90
2495;DHT22;1258;48.336;14.322;2024-03-08T02:23:52;-3.10;99.90
2495;DHT22;1258;48.336;14.322;2024-03-08T02:26:19;-3.20;99.90
2495;DHT22;1258;48.336;14.322;2024-03-08T02:28:46;-3.20;99.90
2495;DHT22;1258;48.336;14.322;2024-03-08T02:31:13;-3.10;99.90
2495;DHT22;1258;48.336;14.322;2024-03-08T02:33:40;-3.30;99.90
2495;DHT22;1258;48.336;14.322;2024-03-08T02:36:07;-3.20;99.90
2495;DHT22;1258;48.336;14.322;2024-03-08T02:38:35;-3.30;99.90
2495;DHT22;1258;48.336;14.322;2024-03-08T02:41:02;-3.20;99.90
2495;DHT22;1258;48.336;14.322;2024-03-08T02:43:29;-3.30;99.90
2495;DHT22;1258;48.336;14.322;2024-03-08T02:45:56;-3.60;99.90
2495;DHT22;1258;48.336;14.322;2024-03-08T02:48:23;-3.70;99.90
2495;DHT22;1258;48.336;14.322;2024-03-08T02:50:51;-3.80;99.90
2495;DHT22;1258;48.336;14.322;2024-03-08T02:53:18;-3.90;99.90
2495;DHT22;1258;48.336;14.322;2024-03-08T02:55:46;-4.00;99.90
2495;DHT22;1258;48.336;14.322;2024-03-08T02:58:13;-4.10;99.90
2495;DHT22;1258;48.336;14.322;2024-03-08T03:00:41;-4.10;99.90
2495;DHT22;1258;48.336;14.322;2024-03-08T03:03:09;-4.20;99.90
2495;DHT22;1258;48.336;14.322;2024-03-08T03:05:36;-4.20;99.90
2495;DHT22;1258;48.336;14.322;2024-03-08T03:08:04;-4.20;99.90
2495;DHT22;1258;48.336;14.322;2024-03-08T03:10:34;-4.20;99.90
2495;DHT22;1258;48.336;14.322;2024-03-08T03:13:03;-4.10;99.90
2495;DHT22;1258;48.336;14.322;2024-03-08T03:15:30;-4.10;99.90
2495;DHT22;1258;48.336;14.322;2024-03-08T03:17:57;-4.10;99.90
2495;DHT22;1258;48.336;14.322;2024-03-08T03:20:24;-4.10;99.90
2495;DHT22;1258;48.336;14.322;2024-03-08T03:22:58;-4.10;99.90
2495;DHT22;1258;48.336;14.322;2024-03-08T03:25:27;-4.20;99.90
2495;DHT22;1258;48.336;14.322;2024-03-08T03:28:00;-4.10;99.90
2495;DHT22;1258;48.336;14.322;2024-03-08T03:30:28;-4.10;99.90
2495;DHT22;1258;48.336;14.322;2024-03-08T03:32:59;-4.20;99.90
2495;DHT22;1258;48.336;14.322;2024-03-08T03:35:27;-4.40;99.90
2495;DHT22;1258;48.336;14.322;2024-03-08T03:37:54;-4.30;99.90
2495;DHT22;1258;48.336;14.322;2024-03-08T03:40:32;-4.40;99.90
2495;DHT22;1258;48.336;14.322;2024-03-08T03:42:59;-4.40;99.90
2495;DHT22;1258;48.336;14.322;2024-03-08T03:45:28;-4.40;99.90
2495;DHT22;1258;48.336;14.322;2024-03-08T03:47:55;-4.10;99.90
2495;DHT22;1258;48.336;14.322;2024-03-08T03:50:22;-4.20;99.90
2495;DHT22;1258;48.336;14.322;2024-03-08T03:52:49;-4.30;99.90
2495;DHT22;1258;48.336;14.322;2024-03-08T03:55:17;-4.30;99.90
2495;DHT22;1258;48.336;14.322;2024-03-08T03:57:45;-4.30;99.90
2495;DHT22;1258;48.336;14.322;2024-03-08T04:00:13;-4.30;99.90
2495;DHT22;1258;48.336;14.322;2024-03-08T04:02:41;-4.50;99.90
2495;DHT22;1258;48.336;14.322;2024-03-08T04:05:09;-4.50;99.90
2495;DHT22;1258;48.336;14.322;2024-03-08T04:07:36;-4.40;99.90
2495;DHT22;1258;48.336;14.322;2024-03-08T04:10:05;-4.50;99.90
2495;DHT22;1258;48.336;14.322;2024-03-08T04:12:32;-4.30;99.90
2495;DHT22;1258;48.336;14.322;2024-03-08T04:14:59;-4.40;99.90
2495;DHT22;1258;48.336;14.322;2024-03-08T04:17:26;-4.50;99.90
2495;DHT22;1258;48.336;14.322;2024-03-08T04:19:54;-4.60;99.90
2495;DHT22;1258;48.336;14.322;2024-03-08T04:22:21;-4.50;99.90
2495;DHT22;1258;48.336;14.322;2024-03-08T04:24:48;-4.40;99.90
2495;DHT22;1258;48.336;14.322;2024-03-08T04:27:15;-4.40;99.90
2495;DHT22;1258;48.336;14.322;2024-03-08T04:29:42;-4.50;99.90
2495;DHT22;1258;48.336;14.322;2024-03-08T04:32:10;-4.40;99.90
2495;DHT22;1258;48.336;14.322;2024-03-08T04:34:39;-4.50;99.90
2495;DHT22;1258;48.336;14.322;2024-03-08T04:37:07;-4.30;99.90
2495;DHT22;1258;48.336;14.322;2024-03-08T04:39:36;-4.30;99.90
2495;DHT22;1258;48.336;14.322;2024-03-08T04:42:05;-4.30;99.90
2495;DHT22;1258;48.336;14.322;2024-03-08T04:44:35;-4.20;99.90
2495;DHT22;1258;48.336;14.322;2024-03-08T04:47:03;-4.20;99.90
2495;DHT22;1258;48.336;14.322;2024-03-08T04:49:31;-4.20;99.90
2495;DHT22;1258;48.336;14.322;2024-03-08T04:52:00;-4.10;99.90
2495;DHT22;1258;48.336;14.322;2024-03-08T04:54:30;-4.00;99.90
2495;DHT22;1258;48.336;14.322;2024-03-08T04:56:57;-4.10;99.90
2495;DHT22;1258;48.336;14.322;2024-03-08T04:59:25;-3.90;99.90
2495;DHT22;1258;48.336;14.322;2024-03-08T05:01:52;-4.00;99.90
2495;DHT22;1258;48.336;14.322;2024-03-08T05:04:19;-4.00;99.90
2495;DHT22;1258;48.336;14.322;2024-03-08T05:06:46;-4.00;99.90
2495;DHT22;1258;48.336;14.322;2024-03-08T05:09:13;-4.00;99.90
2495;DHT22;1258;48.336;14.322;2024-03-08T05:11:43;-4.10;99.90
2495;DHT22;1258;48.336;14.322;2024-03-08T05:14:10;-4.00;99.90
2495;DHT22;1258;48.336;14.322;2024-03-08T05:16:39;-3.90;99.90
2495;DHT22;1258;48.336;14.322;2024-03-08T05:19:06;-4.10;99.90
2495;DHT22;1258;48.336;14.322;2024-03-08T05:21:33;-4.10;99.90
2495;DHT22;1258;48.336;14.322;2024-03-08T05:24:00;-4.20;99.90
2495;DHT22;1258;48.336;14.322;2024-03-08T05:26:27;-4.30;99.90
2495;DHT22;1258;48.336;14.322;2024-03-08T05:28:57;-4.20;99.90
2495;DHT22;1258;48.336;14.322;2024-03-08T05:31:24;-4.30;99.90
2495;DHT22;1258;48.336;14.322;2024-03-08T05:33:51;-4.10;99.90
2495;DHT22;1258;48.336;14.322;2024-03-08T05:36:19;-4.10;99.90
2495;DHT22;1258;48.336;14.322;2024-03-08T05:38:47;-4.00;99.90
2495;DHT22;1258;48.336;14.322;2024-03-08T05:41:16;-4.10;99.90
2495;DHT22;1258;48.336;14.322;2024-03-08T05:43:43;-4.30;99.90
2495;DHT22;1258;48.336;14.322;2024-03-08T05:46:14;-4.40;99.90
2495;DHT22;1258;48.336;14.322;2024-03-08T05:48:41;-4.30;99.90
2495;DHT22;1258;48.336;14.322;2024-03-08T05:51:08;-4.20;99.90
2495;DHT22;1258;48.336;14.322;2024-03-08T05:53:35;-4.20;99.90
2495;DHT22;1258;48.336;14.322;2024-03-08T05:56:02;-4.20;99.90
2495;DHT22;1258;48.336;14.322;2024-03-08T05:58:29;-4.20;99.90
2495;DHT22;1258;48.336;14.322;2024-03-08T06:00:57;-4.20;99.90
2495;DHT22;1258;48.336;14.322;2024-03-08T06:03:25;-4.20;99.90
2495;DHT22;1258;48.336;14.322;2024-03-08T06:05:52;-4.30;99.90
2495;DHT22;1258;48.336;14.322;2024-03-08T06:08:19;-4.30;99.90
2495;DHT22;1258;48.336;14.322;2024-03-08T06:10:46;-4.50;99.90
2495;DHT22;1258;48.336;14.322;2024-03-08T06:13:18;-4.50;99.90
2495;DHT22;1258;48.336;14.322;2024-03-08T06:15:46;-4.50;99.90
2495;DHT22;1258;48.336;14.322;2024-03-08T06:18:13;-4.50;99.90
2495;DHT22;1258;48.336;14.322;2024-03-08T06:20:42;-4.50;99.90
2495;DHT22;1258;48.336;14.322;2024-03-08T06:23:11;-4.50;99.90
2495;DHT22;1258;48.336;14.322;2024-03-08T06:25:39;-4.40;99.90
2495;DHT22;1258;48.336;14.322;2024-03-08T06:28:07;-4.30;99.90
2495;DHT22;1258;48.336;14.322;2024-03-08T06:30:34;-4.00;99.90
2495;DHT22;1258;48.336;14.322;2024-03-08T06:33:00;-4.10;99.90
2495;DHT22;1258;48.336;14.322;2024-03-08T06:35:27;-4.00;99.90
2495;DHT22;1258;48.336;14.322;2024-03-08T06:37:58;-3.80;99.90
2495;DHT22;1258;48.336;14.322;2024-03-08T06:40:25;-3.80;99.90
2495;DHT22;1258;48.336;14.322;2024-03-08T06:42:51;-3.80;99.90
2495;DHT22;1258;48.336;14.322;2024-03-08T06:45:19;-3.50;99.90
2495;DHT22;1258;48.336;14.322;2024-03-08T06:47:46;-3.40;99.90
2495;DHT22;1258;48.336;14.322;2024-03-08T06:50:13;-3.30;99.90
2495;DHT22;1258;48.336;14.322;2024-03-08T06:52:41;-3.20;99.90
2495;DHT22;1258;48.336;14.322;2024-03-08T06:55:11;-3.00;99.90
2495;DHT22;1258;48.336;14.322;2024-03-08T06:57:38;-2.80;99.90
2495;DHT22;1258;48.336;14.322;2024-03-08T07:00:07;-2.90;99.90
2495;DHT22;1258;48.336;14.322;2024-03-08T07:02:35;-2.70;99.90
2495;DHT22;1258;48.336;14.322;2024-03-08T07:05:02;-2.60;99.90
2495;DHT22;1258;48.336;14.322;2024-03-08T07:07:30;-2.50;99.90
2495;DHT22;1258;48.336;14.322;2024-03-08T07:09:57;-2.30;99.90
2495;DHT22;1258;48.336;14.322;2024-03-08T07:12:26;-2.20;99.90
2495;DHT22;1258;48.336;14.322;2024-03-08T07:14:53;-1.90;99.90
2495;DHT22;1258;48.336;14.322;2024-03-08T07:17:19;-1.80;99.90
2495;DHT22;1258;48.336;14.322;2024-03-08T07:19:47;-1.80;99.90
2495;DHT22;1258;48.336;14.322;2024-03-08T07:22:14;-1.70;99.90
2495;DHT22;1258;48.336;14.322;2024-03-08T07:24:42;-1.60;99.90
2495;DHT22;1258;48.336;14.322;2024-03-08T07:27:31;-1.50;99.90
2495;DHT22;1258;48.336;14.322;2024-03-08T07:29:59;-1.40;99.90
2495;DHT22;1258;48.336;14.322;2024-03-08T07:32:28;-1.10;99.90
2495;DHT22;1258;48.336;14.322;2024-03-08T07:34:55;-1.30;99.90
2495;DHT22;1258;48.336;14.322;2024-03-08T07:37:22;-1.10;99.90
2495;DHT22;1258;48.336;14.322;2024-03-08T07:39:49;-1.10;99.90
2495;DHT22;1258;48.336;14.322;2024-03-08T07:42:16;-1.00;99.90
2495;DHT22;1258;48.336;14.322;2024-03-08T07:44:44;-0.90;99.90
2495;DHT22;1258;48.336;14.322;2024-03-08T07:47:14;-0.70;99.90
2495;DHT22;1258;48.336;14.322;2024-03-08T07:49:42;-0.50;99.90
2495;DHT22;1258;48.336;14.322;2024-03-08T07:52:10;-0.90;99.90
2495;DHT22;1258;48.336;14.322;2024-03-08T07:54:41;-1.00;99.90
2495;DHT22;1258;48.336;14.322;2024-03-08T07:57:09;-0.60;99.90
2495;DHT22;1258;48.336;14.322;2024-03-08T07:59:36;-0.40;99.90
2495;DHT22;1258;48.336;14.322;2024-03-08T08:02:05;-0.20;99.90
2495;DHT22;1258;48.336;14.322;2024-03-08T08:04:32;-0.10;99.90
2495;DHT22;1258;48.336;14.322;2024-03-08T08:06:58;-0.10;99.90
2495;DHT22;1258;48.336;14.322;2024-03-08T08:09:26;0.10;99.90
2495;DHT22;1258;48.336;14.322;2024-03-08T08:11:59;0.10;99.90
2495;DHT22;1258;48.336;14.322;2024-03-08T08:14:27;0.10;99.90
2495;DHT22;1258;48.336;14.322;2024-03-08T08:16:54;0.30;99.90
2495;DHT22;1258;48.336;14.322;2024-03-08T08:19:24;0.40;99.90
2495;DHT22;1258;48.336;14.322;2024-03-08T08:21:52;0.50;99.90
2495;DHT22;1258;48.336;14.322;2024-03-08T08:24:19;0.70;99.90
2495;DHT22;1258;48.336;14.322;2024-03-08T08:26:47;0.80;99.90
2495;DHT22;1258;48.336;14.322;2024-03-08T08:29:14;0.90;99.90
2495;DHT22;1258;48.336;14.322;2024-03-08T08:31:41;0.90;99.90
2495;DHT22;1258;48.336;14.322;2024-03-08T08:34:09;1.00;99.90
2495;DHT22;1258;48.336;14.322;2024-03-08T08:36:38;0.90;99.90
2495;DHT22;1258;48.336;14.322;2024-03-08T08:39:05;1.00;99.90
2495;DHT22;1258;48.336;14.322;2024-03-08T08:41:38;1.20;99.90
2495;DHT22;1258;48.336;14.322;2024-03-08T08:44:05;0.90;99.90
2495;DHT22;1258;48.336;14.322;2024-03-08T08:46:33;1.00;99.90
2495;DHT22;1258;48.336;14.322;2024-03-08T08:49:02;1.30;99.90
2495;DHT22;1258;48.336;14.322;2024-03-08T08:51:29;1.10;99.90
2495;DHT22;1258;48.336;14.322;2024-03-08T08:53:57;1.20;99.90
2495;DHT22;1258;48.336;14.322;2024-03-08T08:56:24;1.00;99.90
2495;DHT22;1258;48.336;14.322;2024-03-08T08:58:51;1.30;99.90
2495;DHT22;1258;48.336;14.322;2024-03-08T09:01:18;1.70;99.90
2495;DHT22;1258;48.336;14.322;2024-03-08T09:03:45;1.60;99.90
2495;DHT22;1258;48.336;14.322;2024-03-08T09:06:13;1.30;99.90
2495;DHT22;1258;48.336;14.322;2024-03-08T09:08:40;1.20;99.90
2495;DHT22;1258;48.336;14.322;2024-03-08T09:11:08;1.50;99.90
2495;DHT22;1258;48.336;14.322;2024-03-08T09:13:36;1.60;99.90
2495;DHT22;1258;48.336;14.322;2024-03-08T09:16:04;2.00;99.90
2495;DHT22;1258;48.336;14.322;2024-03-08T09:18:32;2.00;99.90
2495;DHT22;1258;48.336;14.322;2024-03-08T09:20:59;2.00;99.90
2495;DHT22;1258;48.336;14.322;2024-03-08T09:23:26;2.00;99.90
2495;DHT22;1258;48.336;14.322;2024-03-08T09:25:55;2.10;99.90
2495;DHT22;1258;48.336;14.322;2024-03-08T09:28:24;2.10;99.90
2495;DHT22;1258;48.336;14.322;2024-03-08T09:30:52;2.00;99.90
2495;DHT22;1258;48.336;14.322;2024-03-08T09:33:20;2.20;99.90
2495;DHT22;1258;48.336;14.322;2024-03-08T09:35:47;2.10;99.90
2495;DHT22;1258;48.336;14.322;2024-03-08T09:38:14;2.30;99.90
2495;DHT22;1258;48.336;14.322;2024-03-08T09:40:41;2.10;99.90
2495;DHT22;1258;48.336;14.322;2024-03-08T09:43:09;2.20;99.90
2495;DHT22;1258;48.336;14.322;2024-03-08T09:45:40;2.40;99.90
2495;DHT22;1258;48.336;14.322;2024-03-08T09:48:10;2.30;99.90
2495;DHT22;1258;48.336;14.322;2024-03-08T09:50:39;2.40;99.90
2495;DHT22;1258;48.336;14.322;2024-03-08T09:53:07;2.40;99.90
2495;DHT22;1258;48.336;14.322;2024-03-08T09:55:35;2.50;99.90
2495;DHT22;1258;48.336;14.322;2024-03-08T09:58:06;2.70;99.90
2495;DHT22;1258;48.336;14.322;2024-03-08T10:00:51;2.50;99.90
2495;DHT22;1258;48.336;14.322;2024-03-08T10:03:19;2.60;99.90
2495;DHT22;1258;48.336;14.322;2024-03-08T10:05:46;2.70;99.90
2495;DHT22;1258;48.336;14.322;2024-03-08T10:08:13;2.70;99.90
2495;DHT22;1258;48.336;14.322;2024-03-08T10:10:40;2.80;99.90
2495;DHT22;1258;48.336;14.322;2024-03-08T10:13:08;2.90;99.90
2495;DHT22;1258;48.336;14.322;2024-03-08T10:15:36;2.90;99.90
2495;DHT22;1258;48.336;14.322;2024-03-08T10:18:05;3.00;99.90
2495;DHT22;1258;48.336;14.322;2024-03-08T10:20:33;2.80;99.90
2495;DHT22;1258;48.336;14.322;2024-03-08T10:23:00;2.90;99.90
2495;DHT22;1258;48.336;14.322;2024-03-08T10:25:29;2.90;99.90
2495;DHT22;1258;48.336;14.322;2024-03-08T10:27:56;3.00;99.90
2495;DHT22;1258;48.336;14.322;2024-03-08T10:30:23;3.10;99.90
2495;DHT22;1258;48.336;14.322;2024-03-08T10:32:50;3.10;99.90
2495;DHT22;1258;48.336;14.322;2024-03-08T10:35:19;3.30;99.90
2495;DHT22;1258;48.336;14.322;2024-03-08T10:37:47;3.30;99.90
2495;DHT22;1258;48.336;14.322;2024-03-08T10:40:16;3.30;99.90
2495;DHT22;1258;48.336;14.322;2024-03-08T10:42:51;3.40;99.90
2495;DHT22;1258;48.336;14.322;2024-03-08T10:45:26;3.50;99.90
2495;DHT22;1258;48.336;14.322;2024-03-08T10:48:08;3.40;99.90
2495;DHT22;1258;48.336;14.322;2024-03-08T10:50:38;3.50;99.90
2495;DHT22;1258;48.336;14.322;2024-03-08T10:53:06;3.40;99.90
2495;DHT22;1258;48.336;14.322;2024-03-08T10:55:33;3.40;99.90
2495;DHT22;1258;48.336;14.322;2024-03-08T10:58:03;3.10;99.90
2495;DHT22;1258;48.336;14.322;2024-03-08T11:00:31;3.10;99.90
2495;DHT22;1258;48.336;14.322;2024-03-08T11:02:58;3.00;99.90
2495;DHT22;1258;48.336;14.322;2024-03-08T11:05:35;3.20;99.90
2495;DHT22;1258;48.336;14.322;2024-03-08T11:08:15;3.20;99.90
2495;DHT22;1258;48.336;14.322;2024-03-08T11:10:47;3.60;99.90
2495;DHT22;1258;48.336;14.322;2024-03-08T11:13:34;3.60;99.90
2495;DHT22;1258;48.336;14.322;2024-03-08T11:16:01;3.70;99.90
2495;DHT22;1258;48.336;14.322;2024-03-08T11:18:32;3.70;99.90
2495;DHT22;1258;48.336;14.322;2024-03-08T11:21:02;3.80;99.90
2495;DHT22;1258;48.336;14.322;2024-03-08T11:23:33;4.00;99.90
2495;DHT22;1258;48.336;14.322;2024-03-08T11:26:01;3.90;99.90
2495;DHT22;1258;48.336;14.322;2024-03-08T11:28:33;3.80;99.90
2495;DHT22;1258;48.336;14.322;2024-03-08T11:31:24;3.50;99.90
2495;DHT22;1258;48.336;14.322;2024-03-08T11:33:52;3.60;99.90
2495;DHT22;1258;48.336;14.322;2024-03-08T11:36:20;3.80;99.90
2495;DHT22;1258;48.336;14.322;2024-03-08T11:38:49;3.70;99.90
2495;DHT22;1258;48.336;14.322;2024-03-08T11:41:19;3.60;99.90
2495;DHT22;1258;48.336;14.322;2024-03-08T11:43:46;3.60;99.90
2495;DHT22;1258;48.336;14.322;2024-03-08T11:46:14;3.40;99.90
2495;DHT22;1258;48.336;14.322;2024-03-08T11:48:42;3.70;99.90
2495;DHT22;1258;48.336;14.322;2024-03-08T11:51:10;4.00;99.90
2495;DHT22;1258;48.336;14.322;2024-03-08T11:53:39;4.10;99.90
2495;DHT22;1258;48.336;14.322;2024-03-08T11:56:08;4.00;99.90
2495;DHT22;1258;48.336;14.322;2024-03-08T11:58:37;3.90;99.90
2495;DHT22;1258;48.336;14.322;2024-03-08T12:01:04;3.20;99.90
2495;DHT22;1258;48.336;14.322;2024-03-08T12:03:32;3.70;99.90
2495;DHT22;1258;48.336;14.322;2024-03-08T12:06:00;3.80;99.90
2495;DHT22;1258;48.336;14.322;2024-03-08T12:08:30;3.80;99.90
2495;DHT22;1258;48.336;14.322;2024-03-08T12:10:57;3.90;99.90
2495;DHT22;1258;48.336;14.322;2024-03-08T12:13:28;3.70;99.90
2495;DHT22;1258;48.336;14.322;2024-03-08T12:15:57;4.00;99.90
2495;DHT22;1258;48.336;14.322;2024-03-08T12:18:25;4.00;99.90
2495;DHT22;1258;48.336;14.322;2024-03-08T12:21:04;4.20;99.90
2495;DHT22;1258;48.336;14.322;2024-03-08T12:23:33;4.20;99.90
2495;DHT22;1258;48.336;14.322;2024-03-08T12:26:09;4.10;99.90
2495;DHT22;1258;48.336;14.322;2024-03-08T12:28:40;4.00;99.90
2495;DHT22;1258;48.336;14.322;2024-03-08T12:31:08;4.00;99.90
2495;DHT22;1258;48.336;14.322;2024-03-08T12:33:37;4.10;99.90
2495;DHT22;1258;48.336;14.322;2024-03-08T12:36:04;4.10;99.90
2495;DHT22;1258;48.336;14.322;2024-03-08T12:38:33;4.20;99.90
2495;DHT22;1258;48.336;14.322;2024-03-08T12:41:01;3.90;99.90
2495;DHT22;1258;48.336;14.322;2024-03-08T12:43:28;3.80;99.90
2495;DHT22;1258;48.336;14.322;2024-03-08T12:45:58;4.10;99.90
2495;DHT22;1258;48.336;14.322;2024-03-08T12:48:25;4.00;99.90
2495;DHT22;1258;48.336;14.322;2024-03-08T12:50:52;4.20;99.90
2495;DHT22;1258;48.336;14.322;2024-03-08T12:53:20;4.20;99.90
2495;DHT22;1258;48.336;14.322;2024-03-08T12:55:48;4.30;99.90
2495;DHT22;1258;48.336;14.322;2024-03-08T12:58:15;4.40;99.90
2495;DHT22;1258;48.336;14.322;2024-03-08T13:00:43;4.40;99.90
2495;DHT22;1258;48.336;14.322;2024-03-08T13:03:11;4.50;99.90
2495;DHT22;1258;48.336;14.322;2024-03-08T13:05:38;4.40;99.90
2495;DHT22;1258;48.336;14.322;2024-03-08T13:08:08;4.30;99.90
2495;DHT22;1258;48.336;14.322;2024-03-08T13:10:38;4.20;99.90
2495;DHT22;1258;48.336;14.322;2024-03-08T13:13:05;4.10;99.90
2495;DHT22;1258;48.336;14.322;2024-03-08T13:15:33;4.10;99.90
2495;DHT22;1258;48.336;14.322;2024-03-08T13:18:01;4.00;99.90
2495;DHT22;1258;48.336;14.322;2024-03-08T13:20:30;4.00;99.90
2495;DHT22;1258;48.336;14.322;2024-03-08T13:22:57;4.00;99.90
2495;DHT22;1258;48.336;14.322;2024-03-08T13:25:27;4.10;99.90
2495;DHT22;1258;48.336;14.322;2024-03-08T13:27:54;4.10;99.90
2495;DHT22;1258;48.336;14.322;2024-03-08T13:30:22;4.10;99.90
2495;DHT22;1258;48.336;14.322;2024-03-08T13:32:53;4.10;99.90
2495;DHT22;1258;48.336;14.322;2024-03-08T13:35:20;4.00;99.90
2495;DHT22;1258;48.336;14.322;2024-03-08T13:37:51;3.60;99.90
2495;DHT22;1258;48.336;14.322;2024-03-08T13:40:18;3.60;99.90
2495;DHT22;1258;48.336;14.322;2024-03-08T13:42:46;3.70;99.90
2495;DHT22;1258;48.336;14.322;2024-03-08T13:45:14;3.70;99.90
2495;DHT22;1258;48.336;14.322;2024-03-08T13:47:43;3.90;99.90
2495;DHT22;1258;48.336;14.322;2024-03-08T13:50:12;3.70;99.90
2495;DHT22;1258;48.336;14.322;2024-03-08T13:52:39;3.70;99.90
2495;DHT22;1258;48.336;14.322;2024-03-08T13:55:08;3.80;99.90
2495;DHT22;1258;48.336;14.322;2024-03-08T13:57:35;3.70;99.90
2495;DHT22;1258;48.336;14.322;2024-03-08T14:00:02;3.40;99.90
2495;DHT22;1258;48.336;14.322;2024-03-08T14:02:32;3.50;99.90
2495;DHT22;1258;48.336;14.322;2024-03-08T14:04:59;3.70;99.90
2495;DHT22;1258;48.336;14.322;2024-03-08T14:07:27;3.60;99.90
2495;DHT22;1258;48.336;14.322;2024-03-08T14:09:55;3.60;99.90
2495;DHT22;1258;48.336;14.322;2024-03-08T14:12:23;3.50;99.90
2495;DHT22;1258;48.336;14.322;2024-03-08T14:14:52;3.40;99.90
2495;DHT22;1258;48.336;14.322;2024-03-08T14:17:19;3.40;99.90
2495;DHT22;1258;48.336;14.322;2024-03-08T14:19:46;3.30;99.90
2495;DHT22;1258;48.336;14.322;2024-03-08T14:22:12;3.30;99.90
2495;DHT22;1258;48.336;14.322;2024-03-08T14:24:40;3.30;99.90
2495;DHT22;1258;48.336;14.322;2024-03-08T14:27:07;3.40;99.90
2495;DHT22;1258;48.336;14.322;2024-03-08T14:29:36;3.30;99.90
2495;DHT22;1258;48.336;14.322;2024-03-08T14:32:04;3.40;99.90
2495;DHT22;1258;48.336;14.322;2024-03-08T14:34:31;3.30;99.90
2495;DHT22;1258;48.336;14.322;2024-03-08T14:37:00;3.30;99.90
2495;DHT22;1258;48.336;14.322;2024-03-08T14:39:30;3.40;99.90
2495;DHT22;1258;48.336;14.322;2024-03-08T14:41:59;3.20;99.90
2495;DHT22;1258;48.336;14.322;2024-03-08T14:44:26;3.10;99.90
2495;DHT22;1258;48.336;14.322;2024-03-08T14:46:56;3.20;99.90
2495;DHT22;1258;48.336;14.322;2024-03-08T14:49:23;3.00;99.90
2495;DHT22;1258;48.336;14.322;2024-03-08T14:51:51;3.00;99.90
2495;DHT22;1258;48.336;14.322;2024-03-08T14:54:19;3.10;99.90
2495;DHT22;1258;48.336;14.322;2024-03-08T14:56:48;3.00;99.90
2495;DHT22;1258;48.336;14.322;2024-03-08T14:59:16;2.90;99.90
2495;DHT22;1258;48.336;14.322;2024-03-08T15:01:45;2.90;99.90
2495;DHT22;1258;48.336;14.322;2024-03-08T15:04:13;2.90;99.90
2495;DHT22;1258;48.336;14.322;2024-03-08T15:06:41;2.90;99.90
2495;DHT22;1258;48.336;14.322;2024-03-08T15:09:13;3.00;99.90
2495;DHT22;1258;48.336;14.322;2024-03-08T15:11:45;2.90;99.90
2495;DHT22;1258;48.336;14.322;2024-03-08T15:14:12;2.90;99.90
2495;DHT22;1258;48.336;14.322;2024-03-08T15:16:39;2.70;99.90
2495;DHT22;1258;48.336;14.322;2024-03-08T15:19:08;2.70;99.90
2495;DHT22;1258;48.336;14.322;2024-03-08T15:21:39;2.70;99.90
2495;DHT22;1258;48.336;14.322;2024-03-08T15:24:06;2.70;99.90
2495;DHT22;1258;48.336;14.322;2024-03-08T15:26:40;2.60;99.90
2495;DHT22;1258;48.336;14.322;2024-03-08T15:29:08;2.60;99.90
2495;DHT22;1258;48.336;14.322;2024-03-08T15:31:38;2.50;99.90
2495;DHT22;1258;48.336;14.322;2024-03-08T15:34:06;2.60;99.90
2495;DHT22;1258;48.336;14.322;2024-03-08T15:36:34;2.50;99.90
2495;DHT22;1258;48.336;14.322;2024-03-08T15:39:02;2.50;99.90
2495;DHT22;1258;48.336;14.322;2024-03-08T15:41:32;2.40;99.90
2495;DHT22;1258;48.336;14.322;2024-03-08T15:44:00;2.40;99.90
2495;DHT22;1258;48.336;14.322;2024-03-08T15:46:27;2.40;99.90
2495;DHT22;1258;48.336;14.322;2024-03-08T15:48:54;2.40;99.90
2495;DHT22;1258;48.336;14.322;2024-03-08T15:51:22;2.30;99.90
2495;DHT22;1258;48.336;14.322;2024-03-08T15:53:49;2.30;99.90
2495;DHT22;1258;48.336;14.322;2024-03-08T15:56:22;2.20;99.90
2495;DHT22;1258;48.336;14.322;2024-03-08T15:58:49;2.20;99.90
2495;DHT22;1258;48.336;14.322;2024-03-08T16:01:16;2.20;99.90